sensor_id;sensor_type;location;lat;lon;timestamp;P1;durP1;ratioP1;P2;durP2;ratioP2
3967;SDS011;9221;42.646;23.380;2022-11-23T00:02:13;11.90;;;4.60;;
3967;SDS011;9221;42.646;23.380;2022-11-23T00:04:39;10.77;;;4.60;;
3967;SDS011;9221;42.646;23.380;2022-11-23T00:07:04;12.50;;;4.97;;
3967;SDS011;9221;42.646;23.380;2022-11-23T00:09:30;12.43;;;4.83;;
3967;SDS011;9221;42.646;23.380;2022-11-23T00:11:55;9.57;;;3.93;;
3967;SDS011;9221;42.646;23.380;2022-11-23T00:14:20;13.47;;;5.03;;
3967;SDS011;9221;42.646;23.380;2022-11-23T00:16:46;12.53;;;4.73;;
3967;SDS011;9221;42.646;23.380;2022-11-23T00:19:11;13.80;;;5.10;;
3967;SDS011;9221;42.646;23.380;2022-11-23T00:21:36;12.33;;;5.17;;
3967;SDS011;9221;42.646;23.380;2022-11-23T00:24:02;12.33;;;5.03;;
3967;SDS011;9221;42.646;23.380;2022-11-23T00:26:28;8.60;;;4.40;;
3967;SDS011;9221;42.646;23.380;2022-11-23T00:28:53;12.00;;;5.43;;
3967;SDS011;9221;42.646;23.380;2022-11-23T00:31:19;12.73;;;5.40;;
3967;SDS011;9221;42.646;23.380;2022-11-23T00:33:48;10.40;;;4.43;;
3967;SDS011;9221;42.646;23.380;2022-11-23T00:36:19;12.63;;;5.83;;
3967;SDS011;9221;42.646;23.380;2022-11-23T00:38:45;12.93;;;4.60;;
3967;SDS011;9221;42.646;23.380;2022-11-23T00:41:11;11.63;;;4.67;;
3967;SDS011;9221;42.646;23.380;2022-11-23T00:43:38;13.30;;;5.00;;
3967;SDS011;9221;42.646;23.380;2022-11-23T00:48:43;12.40;;;4.93;;
3967;SDS011;9221;42.646;23.380;2022-11-23T00:51:11;13.70;;;5.17;;
3967;SDS011;9221;42.646;23.380;2022-11-23T00:53:39;10.80;;;4.90;;
3967;SDS011;9221;42.646;23.380;2022-11-23T00:56:05;11.90;;;5.07;;
3967;SDS011;9221;42.646;23.380;2022-11-23T00:58:31;10.27;;;4.87;;
3967;SDS011;9221;42.646;23.380;2022-11-23T01:01:01;8.30;;;3.90;;
3967;SDS011;9221;42.646;23.380;2022-11-23T01:03:37;10.80;;;4.30;;
3967;SDS011;9221;42.646;23.380;2022-11-23T01:06:07;10.40;;;4.20;;
3967;SDS011;9221;42.646;23.380;2022-11-23T01:08:34;20.13;;;5.10;;
3967;SDS011;9221;42.646;23.380;2022-11-23T01:11:02;9.10;;;4.60;;
3967;SDS011;9221;42.646;23.380;2022-11-23T01:13:29;12.90;;;4.87;;
3967;SDS011;9221;42.646;23.380;2022-11-23T01:15:55;17.63;;;5.30;;
3967;SDS011;9221;42.646;23.380;2022-11-23T01:18:21;8.90;;;3.97;;
3967;SDS011;9221;42.646;23.380;2022-11-23T01:20:47;7.57;;;3.80;;
3967;SDS011;9221;42.646;23.380;2022-11-23T01:23:12;9.13;;;4.03;;
3967;SDS011;9221;42.646;23.380;2022-11-23T01:25:37;9.27;;;4.57;;
3967;SDS011;9221;42.646;23.380;2022-11-23T01:28:03;11.43;;;4.50;;
3967;SDS011;9221;42.646;23.380;2022-11-23T01:30:29;8.07;;;3.83;;
3967;SDS011;9221;42.646;23.380;2022-11-23T01:32:54;7.60;;;3.77;;
3967;SDS011;9221;42.646;23.380;2022-11-23T01:35:19;7.80;;;4.30;;
3967;SDS011;9221;42.646;23.380;2022-11-23T01:37:45;20.53;;;4.97;;
3967;SDS011;9221;42.646;23.380;2022-11-23T01:40:10;19.10;;;4.80;;
3967;SDS011;9221;42.646;23.380;2022-11-23T01:42:46;12.53;;;4.30;;
3967;SDS011;9221;42.646;23.380;2022-11-23T01:48:04;9.60;;;3.83;;
3967;SDS011;9221;42.646;23.380;2022-11-23T01:50:44;8.43;;;3.90;;
3967;SDS011;9221;42.646;23.380;2022-11-23T01:53:12;13.93;;;3.70;;
3967;SDS011;9221;42.646;23.380;2022-11-23T01:55:39;10.53;;;4.27;;
3967;SDS011;9221;42.646;23.380;2022-11-23T01:58:06;9.07;;;4.13;;
3967;SDS011;9221;42.646;23.380;2022-11-23T02:00:34;9.03;;;3.80;;
3967;SDS011;9221;42.646;23.380;2022-11-23T02:03:00;13.30;;;4.43;;
3967;SDS011;9221;42.646;23.380;2022-11-23T02:05:29;8.03;;;3.70;;
3967;SDS011;9221;42.646;23.380;2022-11-23T02:07:59;7.37;;;3.60;;
3967;SDS011;9221;42.646;23.380;2022-11-23T02:10:25;15.93;;;4.53;;
3967;SDS011;9221;42.646;23.380;2022-11-23T02:12:52;11.00;;;4.60;;
3967;SDS011;9221;42.646;23.380;2022-11-23T02:15:18;9.37;;;4.07;;
3967;SDS011;9221;42.646;23.380;2022-11-23T02:17:43;13.53;;;4.10;;
3967;SDS011;9221;42.646;23.380;2022-11-23T02:20:10;10.67;;;3.87;;
3967;SDS011;9221;42.646;23.380;2022-11-23T02:25:21;8.13;;;3.23;;
3967;SDS011;9221;42.646;23.380;2022-11-23T02:27:57;9.90;;;4.00;;
3967;SDS011;9221;42.646;23.380;2022-11-23T02:30:24;12.60;;;4.70;;
3967;SDS011;9221;42.646;23.380;2022-11-23T02:32:50;13.03;;;4.93;;
3967;SDS011;9221;42.646;23.380;2022-11-23T02:35:15;24.37;;;5.93;;
3967;SDS011;9221;42.646;23.380;2022-11-23T02:37:41;9.07;;;3.90;;
3967;SDS011;9221;42.646;23.380;2022-11-23T02:40:15;9.93;;;4.23;;
3967;SDS011;9221;42.646;23.380;2022-11-23T02:42:51;9.23;;;4.00;;
3967;SDS011;9221;42.646;23.380;2022-11-23T02:45:20;9.27;;;3.70;;
3967;SDS011;9221;42.646;23.380;2022-11-23T02:48:02;10.83;;;3.83;;
3967;SDS011;9221;42.646;23.380;2022-11-23T02:50:28;9.63;;;4.10;;
3967;SDS011;9221;42.646;23.380;2022-11-23T02:52:54;14.20;;;5.90;;
3967;SDS011;9221;42.646;23.380;2022-11-23T02:55:19;14.83;;;5.27;;
3967;SDS011;9221;42.646;23.380;2022-11-23T02:57:45;17.87;;;5.30;;
3967;SDS011;9221;42.646;23.380;2022-11-23T03:00:11;12.63;;;5.73;;
3967;SDS011;9221;42.646;23.380;2022-11-23T03:02:37;12.23;;;5.60;;
3967;SDS011;9221;42.646;23.380;2022-11-23T03:05:03;16.10;;;6.03;;
3967;SDS011;9221;42.646;23.380;2022-11-23T03:07:28;15.60;;;6.63;;
3967;SDS011;9221;42.646;23.380;2022-11-23T03:09:54;19.17;;;7.00;;
3967;SDS011;9221;42.646;23.380;2022-11-23T03:12:19;13.37;;;6.00;;
3967;SDS011;9221;42.646;23.380;2022-11-23T03:14:45;14.80;;;6.70;;
3967;SDS011;9221;42.646;23.380;2022-11-23T03:17:10;21.20;;;6.10;;
3967;SDS011;9221;42.646;23.380;2022-11-23T03:19:36;15.27;;;6.27;;
3967;SDS011;9221;42.646;23.380;2022-11-23T03:22:02;11.90;;;5.50;;
3967;SDS011;9221;42.646;23.380;2022-11-23T03:24:27;13.27;;;5.80;;
3967;SDS011;9221;42.646;23.380;2022-11-23T03:26:53;14.30;;;5.20;;
3967;SDS011;9221;42.646;23.380;2022-11-23T03:29:18;10.47;;;5.27;;
3967;SDS011;9221;42.646;23.380;2022-11-23T03:31:44;12.57;;;5.33;;
3967;SDS011;9221;42.646;23.380;2022-11-23T03:34:09;11.43;;;4.87;;
3967;SDS011;9221;42.646;23.380;2022-11-23T03:36:35;19.00;;;6.27;;
3967;SDS011;9221;42.646;23.380;2022-11-23T03:39:00;14.43;;;6.17;;
3967;SDS011;9221;42.646;23.380;2022-11-23T03:41:26;12.00;;;5.17;;
3967;SDS011;9221;42.646;23.380;2022-11-23T03:43:51;13.03;;;5.90;;
3967;SDS011;9221;42.646;23.380;2022-11-23T03:46:17;14.90;;;5.93;;
3967;SDS011;9221;42.646;23.380;2022-11-23T03:48:42;21.57;;;6.87;;
3967;SDS011;9221;42.646;23.380;2022-11-23T03:51:08;18.90;;;6.47;;
3967;SDS011;9221;42.646;23.380;2022-11-23T03:53:33;15.77;;;6.33;;
3967;SDS011;9221;42.646;23.380;2022-11-23T03:55:58;16.47;;;6.37;;
3967;SDS011;9221;42.646;23.380;2022-11-23T03:58:24;13.10;;;6.20;;
3967;SDS011;9221;42.646;23.380;2022-11-23T04:00:49;14.07;;;6.00;;
3967;SDS011;9221;42.646;23.380;2022-11-23T04:03:15;14.83;;;6.20;;
3967;SDS011;9221;42.646;23.380;2022-11-23T04:05:40;13.60;;;5.80;;
3967;SDS011;9221;42.646;23.380;2022-11-23T04:08:06;14.63;;;6.80;;
3967;SDS011;9221;42.646;23.380;2022-11-23T04:10:31;17.00;;;6.37;;
3967;SDS011;9221;42.646;23.380;2022-11-23T04:12:57;15.77;;;6.60;;
3967;SDS011;9221;42.646;23.380;2022-11-23T04:15:22;13.10;;;6.40;;
3967;SDS011;9221;42.646;23.380;2022-11-23T04:17:47;16.17;;;6.03;;
3967;SDS011;9221;42.646;23.380;2022-11-23T04:20:13;13.90;;;5.70;;
3967;SDS011;9221;42.646;23.380;2022-11-23T04:22:39;17.37;;;5.87;;
3967;SDS011;9221;42.646;23.380;2022-11-23T04:25:04;15.37;;;6.10;;
3967;SDS011;9221;42.646;23.380;2022-11-23T04:27:30;14.17;;;5.87;;
3967;SDS011;9221;42.646;23.380;2022-11-23T04:29:56;15.03;;;5.80;;
3967;SDS011;9221;42.646;23.380;2022-11-23T04:32:21;11.47;;;5.50;;
3967;SDS011;9221;42.646;23.380;2022-11-23T04:34:47;11.63;;;5.83;;
3967;SDS011;9221;42.646;23.380;2022-11-23T04:37:12;13.33;;;5.60;;
3967;SDS011;9221;42.646;23.380;2022-11-23T04:39:37;13.17;;;6.03;;
3967;SDS011;9221;42.646;23.380;2022-11-23T04:42:03;16.23;;;6.27;;
3967;SDS011;9221;42.646;23.380;2022-11-23T04:44:28;12.17;;;5.73;;
3967;SDS011;9221;42.646;23.380;2022-11-23T04:46:54;17.80;;;6.90;;
3967;SDS011;9221;42.646;23.380;2022-11-23T04:49:19;16.30;;;7.27;;
3967;SDS011;9221;42.646;23.380;2022-11-23T04:51:45;16.00;;;6.53;;
3967;SDS011;9221;42.646;23.380;2022-11-23T04:54:10;18.40;;;6.77;;
3967;SDS011;9221;42.646;23.380;2022-11-23T04:56:35;19.13;;;7.50;;
3967;SDS011;9221;42.646;23.380;2022-11-23T04:59:01;16.93;;;6.90;;
3967;SDS011;9221;42.646;23.380;2022-11-23T05:01:26;16.27;;;7.20;;
3967;SDS011;9221;42.646;23.380;2022-11-23T05:03:52;14.30;;;6.73;;
3967;SDS011;9221;42.646;23.380;2022-11-23T05:06:17;16.83;;;5.67;;
3967;SDS011;9221;42.646;23.380;2022-11-23T05:08:42;17.20;;;6.50;;
3967;SDS011;9221;42.646;23.380;2022-11-23T05:11:08;14.90;;;6.43;;
3967;SDS011;9221;42.646;23.380;2022-11-23T05:13:33;21.73;;;7.13;;
3967;SDS011;9221;42.646;23.380;2022-11-23T05:15:59;17.37;;;7.00;;
3967;SDS011;9221;42.646;23.380;2022-11-23T05:18:24;15.03;;;6.70;;
3967;SDS011;9221;42.646;23.380;2022-11-23T05:20:50;15.60;;;7.20;;
3967;SDS011;9221;42.646;23.380;2022-11-23T05:23:15;17.40;;;7.20;;
3967;SDS011;9221;42.646;23.380;2022-11-23T05:25:41;17.63;;;7.47;;
3967;SDS011;9221;42.646;23.380;2022-11-23T05:28:07;13.17;;;6.77;;
3967;SDS011;9221;42.646;23.380;2022-11-23T05:30:39;13.27;;;6.40;;
3967;SDS011;9221;42.646;23.380;2022-11-23T05:33:04;15.70;;;6.60;;
3967;SDS011;9221;42.646;23.380;2022-11-23T05:35:30;20.00;;;8.27;;
3967;SDS011;9221;42.646;23.380;2022-11-23T05:37:55;20.20;;;7.53;;
3967;SDS011;9221;42.646;23.380;2022-11-23T05:40:21;17.23;;;8.07;;
3967;SDS011;9221;42.646;23.380;2022-11-23T05:42:47;15.67;;;7.53;;
3967;SDS011;9221;42.646;23.380;2022-11-23T05:45:12;22.03;;;9.20;;
3967;SDS011;9221;42.646;23.380;2022-11-23T05:47:38;21.60;;;8.77;;
3967;SDS011;9221;42.646;23.380;2022-11-23T05:50:03;18.30;;;8.33;;
3967;SDS011;9221;42.646;23.380;2022-11-23T05:52:30;20.53;;;8.70;;
3967;SDS011;9221;42.646;23.380;2022-11-23T05:54:55;16.67;;;8.67;;
3967;SDS011;9221;42.646;23.380;2022-11-23T05:57:20;20.17;;;8.33;;
3967;SDS011;9221;42.646;23.380;2022-11-23T05:59:46;17.30;;;8.33;;
3967;SDS011;9221;42.646;23.380;2022-11-23T06:02:12;19.10;;;8.20;;
3967;SDS011;9221;42.646;23.380;2022-11-23T06:04:38;20.33;;;8.40;;
3967;SDS011;9221;42.646;23.380;2022-11-23T06:07:03;19.43;;;8.87;;
3967;SDS011;9221;42.646;23.380;2022-11-23T06:09:29;18.80;;;9.30;;
3967;SDS011;9221;42.646;23.380;2022-11-23T06:11:55;18.83;;;8.10;;
3967;SDS011;9221;42.646;23.380;2022-11-23T06:14:20;22.13;;;9.80;;
3967;SDS011;9221;42.646;23.380;2022-11-23T06:16:46;19.47;;;8.93;;
3967;SDS011;9221;42.646;23.380;2022-11-23T06:19:11;17.37;;;9.07;;
3967;SDS011;9221;42.646;23.380;2022-11-23T06:21:37;20.33;;;9.33;;
3967;SDS011;9221;42.646;23.380;2022-11-23T06:24:02;20.47;;;9.03;;
3967;SDS011;9221;42.646;23.380;2022-11-23T06:26:28;23.00;;;9.63;;
3967;SDS011;9221;42.646;23.380;2022-11-23T06:28:54;18.33;;;8.57;;
3967;SDS011;9221;42.646;23.380;2022-11-23T06:31:19;21.40;;;10.00;;
3967;SDS011;9221;42.646;23.380;2022-11-23T06:33:44;21.10;;;8.90;;
3967;SDS011;9221;42.646;23.380;2022-11-23T06:36:10;19.70;;;8.60;;
3967;SDS011;9221;42.646;23.380;2022-11-23T06:38:36;18.07;;;8.50;;
3967;SDS011;9221;42.646;23.380;2022-11-23T06:41:02;17.10;;;7.83;;
3967;SDS011;9221;42.646;23.380;2022-11-23T06:43:28;19.53;;;7.40;;
3967;SDS011;9221;42.646;23.380;2022-11-23T06:45:54;21.30;;;9.33;;
3967;SDS011;9221;42.646;23.380;2022-11-23T06:48:20;17.47;;;8.00;;
3967;SDS011;9221;42.646;23.380;2022-11-23T06:50:46;22.77;;;9.30;;
3967;SDS011;9221;42.646;23.380;2022-11-23T06:53:11;21.13;;;9.20;;
3967;SDS011;9221;42.646;23.380;2022-11-23T06:55:37;19.03;;;9.00;;
3967;SDS011;9221;42.646;23.380;2022-11-23T06:58:03;20.87;;;9.60;;
3967;SDS011;9221;42.646;23.380;2022-11-23T07:00:28;18.23;;;8.27;;
3967;SDS011;9221;42.646;23.380;2022-11-23T07:02:54;16.43;;;8.80;;
3967;SDS011;9221;42.646;23.380;2022-11-23T07:05:20;20.63;;;8.63;;
3967;SDS011;9221;42.646;23.380;2022-11-23T07:07:46;20.63;;;8.57;;
3967;SDS011;9221;42.646;23.380;2022-11-23T07:10:11;13.70;;;7.60;;
3967;SDS011;9221;42.646;23.380;2022-11-23T07:12:37;19.40;;;7.80;;
3967;SDS011;9221;42.646;23.380;2022-11-23T07:15:04;15.63;;;7.17;;
3967;SDS011;9221;42.646;23.380;2022-11-23T07:17:29;17.80;;;7.87;;
3967;SDS011;9221;42.646;23.380;2022-11-23T07:19:55;17.17;;;8.60;;
3967;SDS011;9221;42.646;23.380;2022-11-23T07:22:20;12.80;;;6.93;;
3967;SDS011;9221;42.646;23.380;2022-11-23T07:24:46;17.10;;;7.07;;
3967;SDS011;9221;42.646;23.380;2022-11-23T07:27:11;18.67;;;8.70;;
3967;SDS011;9221;42.646;23.380;2022-11-23T07:29:36;16.60;;;7.60;;
3967;SDS011;9221;42.646;23.380;2022-11-23T07:32:02;21.37;;;8.20;;
3967;SDS011;9221;42.646;23.380;2022-11-23T07:34:27;18.27;;;8.30;;
3967;SDS011;9221;42.646;23.380;2022-11-23T07:36:53;17.47;;;8.33;;
3967;SDS011;9221;42.646;23.380;2022-11-23T07:39:19;15.50;;;8.17;;
3967;SDS011;9221;42.646;23.380;2022-11-23T07:41:44;16.00;;;7.73;;
3967;SDS011;9221;42.646;23.380;2022-11-23T07:44:12;16.47;;;8.00;;
3967;SDS011;9221;42.646;23.380;2022-11-23T07:46:38;25.17;;;9.70;;
3967;SDS011;9221;42.646;23.380;2022-11-23T07:49:04;20.40;;;9.30;;
3967;SDS011;9221;42.646;23.380;2022-11-23T07:51:29;18.53;;;8.30;;
3967;SDS011;9221;42.646;23.380;2022-11-23T07:53:55;20.37;;;7.97;;
3967;SDS011;9221;42.646;23.380;2022-11-23T07:56:21;19.00;;;8.23;;
3967;SDS011;9221;42.646;23.380;2022-11-23T07:58:47;17.13;;;6.70;;
3967;SDS011;9221;42.646;23.380;2022-11-23T08:01:16;19.87;;;8.20;;
3967;SDS011;9221;42.646;23.380;2022-11-23T08:03:45;13.47;;;7.57;;
3967;SDS011;9221;42.646;23.380;2022-11-23T08:06:12;20.20;;;8.47;;
3967;SDS011;9221;42.646;23.380;2022-11-23T08:08:38;14.13;;;7.67;;
3967;SDS011;9221;42.646;23.380;2022-11-23T08:11:04;13.83;;;7.10;;
3967;SDS011;9221;42.646;23.380;2022-11-23T08:13:30;12.63;;;6.90;;
3967;SDS011;9221;42.646;23.380;2022-11-23T08:15:56;12.90;;;6.80;;
3967;SDS011;9221;42.646;23.380;2022-11-23T08:18:24;12.83;;;6.30;;
3967;SDS011;9221;42.646;23.380;2022-11-23T08:20:49;14.50;;;7.20;;
3967;SDS011;9221;42.646;23.380;2022-11-23T08:23:15;12.63;;;7.30;;
3967;SDS011;9221;42.646;23.380;2022-11-23T08:25:40;14.50;;;7.30;;
3967;SDS011;9221;42.646;23.380;2022-11-23T08:28:06;19.03;;;7.43;;
3967;SDS011;9221;42.646;23.380;2022-11-23T08:30:32;14.77;;;8.40;;
3967;SDS011;9221;42.646;23.380;2022-11-23T08:33:00;16.30;;;8.23;;
3967;SDS011;9221;42.646;23.380;2022-11-23T08:35:28;17.50;;;9.47;;
3967;SDS011;9221;42.646;23.380;2022-11-23T08:37:53;15.33;;;8.50;;
3967;SDS011;9221;42.646;23.380;2022-11-23T08:40:19;13.73;;;7.60;;
3967;SDS011;9221;42.646;23.380;2022-11-23T08:42:45;22.90;;;9.80;;
3967;SDS011;9221;42.646;23.380;2022-11-23T08:45:11;14.73;;;8.27;;
3967;SDS011;9221;42.646;23.380;2022-11-23T08:47:37;16.20;;;9.10;;
3967;SDS011;9221;42.646;23.380;2022-11-23T08:50:02;15.73;;;8.60;;
3967;SDS011;9221;42.646;23.380;2022-11-23T08:52:28;16.47;;;8.50;;
3967;SDS011;9221;42.646;23.380;2022-11-23T08:54:53;15.00;;;9.27;;
3967;SDS011;9221;42.646;23.380;2022-11-23T08:57:19;18.10;;;8.80;;
3967;SDS011;9221;42.646;23.380;2022-11-23T08:59:44;15.10;;;8.90;;
3967;SDS011;9221;42.646;23.380;2022-11-23T09:02:13;22.03;;;9.37;;
3967;SDS011;9221;42.646;23.380;2022-11-23T09:04:39;17.90;;;8.60;;
3967;SDS011;9221;42.646;23.380;2022-11-23T09:07:05;17.57;;;9.10;;
3967;SDS011;9221;42.646;23.380;2022-11-23T09:09:31;19.03;;;9.77;;
3967;SDS011;9221;42.646;23.380;2022-11-23T09:11:56;12.43;;;8.20;;
3967;SDS011;9221;42.646;23.380;2022-11-23T09:14:22;15.97;;;7.90;;
3967;SDS011;9221;42.646;23.380;2022-11-23T09:16:47;17.43;;;9.33;;
3967;SDS011;9221;42.646;23.380;2022-11-23T09:19:13;16.60;;;8.07;;
3967;SDS011;9221;42.646;23.380;2022-11-23T09:21:39;13.60;;;8.47;;
3967;SDS011;9221;42.646;23.380;2022-11-23T09:24:06;21.33;;;8.97;;
3967;SDS011;9221;42.646;23.380;2022-11-23T09:26:34;16.37;;;8.63;;
3967;SDS011;9221;42.646;23.380;2022-11-23T09:29:02;15.37;;;8.67;;
3967;SDS011;9221;42.646;23.380;2022-11-23T09:31:28;15.03;;;8.30;;
3967;SDS011;9221;42.646;23.380;2022-11-23T09:33:54;24.97;;;9.60;;
3967;SDS011;9221;42.646;23.380;2022-11-23T09:36:19;16.60;;;9.10;;
3967;SDS011;9221;42.646;23.380;2022-11-23T09:38:47;17.53;;;9.10;;
3967;SDS011;9221;42.646;23.380;2022-11-23T09:44:15;14.80;;;7.60;;
3967;SDS011;9221;42.646;23.380;2022-11-23T09:49:48;19.17;;;9.33;;
3967;SDS011;9221;42.646;23.380;2022-11-23T09:52:28;20.83;;;9.80;;
3967;SDS011;9221;42.646;23.380;2022-11-23T09:54:55;20.87;;;8.83;;
3967;SDS011;9221;42.646;23.380;2022-11-23T09:57:25;23.20;;;9.33;;
3967;SDS011;9221;42.646;23.380;2022-11-23T10:00:06;38.13;;;11.00;;
3967;SDS011;9221;42.646;23.380;2022-11-23T10:02:39;22.83;;;9.50;;
3967;SDS011;9221;42.646;23.380;2022-11-23T10:05:05;16.73;;;9.30;;
3967;SDS011;9221;42.646;23.380;2022-11-23T10:15:49;11.50;;;5.90;;
3967;SDS011;9221;42.646;23.380;2022-11-23T10:20:53;23.13;;;8.77;;
3967;SDS011;9221;42.646;23.380;2022-11-23T10:26:16;22.23;;;9.57;;
3967;SDS011;9221;42.646;23.380;2022-11-23T10:28:44;21.20;;;8.63;;
3967;SDS011;9221;42.646;23.380;2022-11-23T10:36:22;7.47;;;3.10;;
3967;SDS011;9221;42.646;23.380;2022-11-23T10:38:57;7.60;;;3.87;;
3967;SDS011;9221;42.646;23.380;2022-11-23T10:41:24;6.10;;;3.20;;
3967;SDS011;9221;42.646;23.380;2022-11-23T10:46:43;5.80;;;3.40;;
3967;SDS011;9221;42.646;23.380;2022-11-23T10:49:28;15.63;;;7.03;;
3967;SDS011;9221;42.646;23.380;2022-11-23T10:54:31;17.87;;;6.90;;
3967;SDS011;9221;42.646;23.380;2022-11-23T10:57:00;20.23;;;7.13;;
3967;SDS011;9221;42.646;23.380;2022-11-23T10:59:37;19.93;;;8.40;;
3967;SDS011;9221;42.646;23.380;2022-11-23T11:02:21;16.20;;;8.20;;
3967;SDS011;9221;42.646;23.380;2022-11-23T11:04:47;14.20;;;6.27;;
3967;SDS011;9221;42.646;23.380;2022-11-23T11:07:25;11.37;;;5.20;;
3967;SDS011;9221;42.646;23.380;2022-11-23T11:09:57;9.47;;;4.53;;
3967;SDS011;9221;42.646;23.380;2022-11-23T11:12:24;13.93;;;6.20;;
3967;SDS011;9221;42.646;23.380;2022-11-23T11:17:55;8.73;;;4.30;;
3967;SDS011;9221;42.646;23.380;2022-11-23T11:22:48;11.90;;;5.70;;
3967;SDS011;9221;42.646;23.380;2022-11-23T11:25:27;10.83;;;5.80;;
3967;SDS011;9221;42.646;23.380;2022-11-23T11:27:58;12.07;;;5.33;;
3967;SDS011;9221;42.646;23.380;2022-11-23T11:30:26;12.60;;;5.80;;
3967;SDS011;9221;42.646;23.380;2022-11-23T11:35:42;11.90;;;4.47;;
3967;SDS011;9221;42.646;23.380;2022-11-23T11:38:26;7.00;;;3.00;;
3967;SDS011;9221;42.646;23.380;2022-11-23T11:40:56;6.37;;;2.93;;
3967;SDS011;9221;42.646;23.380;2022-11-23T11:43:31;5.90;;;2.23;;
3967;SDS011;9221;42.646;23.380;2022-11-23T11:46:03;10.13;;;2.80;;
3967;SDS011;9221;42.646;23.380;2022-11-23T11:48:35;6.30;;;2.50;;
3967;SDS011;9221;42.646;23.380;2022-11-23T11:53:57;2.73;;;1.33;;
3967;SDS011;9221;42.646;23.380;2022-11-23T11:59:15;4.57;;;1.40;;
3967;SDS011;9221;42.646;23.380;2022-11-23T12:04:44;3.37;;;1.70;;
3967;SDS011;9221;42.646;23.380;2022-11-23T12:07:31;5.37;;;1.70;;
3967;SDS011;9221;42.646;23.380;2022-11-23T12:10:02;4.30;;;1.30;;
3967;SDS011;9221;42.646;23.380;2022-11-23T12:12:34;3.00;;;1.30;;
3967;SDS011;9221;42.646;23.380;2022-11-23T12:15:01;1.60;;;0.90;;
3967;SDS011;9221;42.646;23.380;2022-11-23T12:29:20;3.20;;;1.40;;
3967;SDS011;9221;42.646;23.380;2022-11-23T12:40:02;5.80;;;0.77;;
3967;SDS011;9221;42.646;23.380;2022-11-23T12:42:43;2.30;;;0.97;;
3967;SDS011;9221;42.646;23.380;2022-11-23T12:45:16;3.17;;;0.53;;
3967;SDS011;9221;42.646;23.380;2022-11-23T12:56:50;0.70;;;0.47;;
3967;SDS011;9221;42.646;23.380;2022-11-23T12:59:19;5.93;;;0.70;;
3967;SDS011;9221;42.646;23.380;2022-11-23T13:01:49;2.93;;;0.40;;
3967;SDS011;9221;42.646;23.380;2022-11-23T13:04:34;0.40;;;0.30;;
3967;SDS011;9221;42.646;23.380;2022-11-23T13:10:06;0.50;;;0.40;;
3967;SDS011;9221;42.646;23.380;2022-11-23T13:23:43;1.43;;;0.50;;
3967;SDS011;9221;42.646;23.380;2022-11-23T13:28:48;1.37;;;0.30;;
3967;SDS011;9221;42.646;23.380;2022-11-23T13:33:42;1.60;;;0.40;;
3967;SDS011;9221;42.646;23.380;2022-11-23T13:36:12;13.07;;;0.70;;
3967;SDS011;9221;42.646;23.380;2022-11-23T13:39:04;2.47;;;0.50;;
3967;SDS011;9221;42.646;23.380;2022-11-23T13:49:48;5.20;;;0.80;;
3967;SDS011;9221;42.646;23.380;2022-11-23T13:57:24;0.60;;;0.50;;
3967;SDS011;9221;42.646;23.380;2022-11-23T13:59:50;3.80;;;0.67;;
3967;SDS011;9221;42.646;23.380;2022-11-23T14:04:44;6.60;;;0.93;;
3967;SDS011;9221;42.646;23.380;2022-11-23T14:10:02;6.53;;;0.60;;
3967;SDS011;9221;42.646;23.380;2022-11-23T14:20:42;4.83;;;0.93;;
3967;SDS011;9221;42.646;23.380;2022-11-23T14:35:42;3.43;;;0.80;;
3967;SDS011;9221;42.646;23.380;2022-11-23T14:41:15;1.00;;;0.50;;
3967;SDS011;9221;42.646;23.380;2022-11-23T14:43:44;2.10;;;0.60;;
3967;SDS011;9221;42.646;23.380;2022-11-23T14:46:18;2.70;;;0.53;;
3967;SDS011;9221;42.646;23.380;2022-11-23T14:48:45;1.67;;;0.50;;
3967;SDS011;9221;42.646;23.380;2022-11-23T14:51:13;2.60;;;0.50;;
3967;SDS011;9221;42.646;23.380;2022-11-23T14:53:41;0.70;;;0.30;;
3967;SDS011;9221;42.646;23.380;2022-11-23T14:56:24;1.80;;;0.70;;
3967;SDS011;9221;42.646;23.380;2022-11-23T14:58:54;2.47;;;0.83;;
3967;SDS011;9221;42.646;23.380;2022-11-23T15:01:27;1.90;;;0.83;;
3967;SDS011;9221;42.646;23.380;2022-11-23T15:03:57;1.80;;;1.00;;
3967;SDS011;9221;42.646;23.380;2022-11-23T15:06:30;3.50;;;0.90;;
3967;SDS011;9221;42.646;23.380;2022-11-23T15:11:45;3.97;;;0.97;;
3967;SDS011;9221;42.646;23.380;2022-11-23T15:14:20;9.17;;;1.40;;
3967;SDS011;9221;42.646;23.380;2022-11-23T15:16:50;2.97;;;1.30;;
3967;SDS011;9221;42.646;23.380;2022-11-23T15:19:16;2.13;;;1.20;;
3967;SDS011;9221;42.646;23.380;2022-11-23T15:21:52;6.20;;;1.53;;
3967;SDS011;9221;42.646;23.380;2022-11-23T15:24:20;2.40;;;1.10;;
3967;SDS011;9221;42.646;23.380;2022-11-23T15:26:50;3.77;;;1.60;;
3967;SDS011;9221;42.646;23.380;2022-11-23T15:29:30;11.20;;;1.70;;
3967;SDS011;9221;42.646;23.380;2022-11-23T15:31:57;11.00;;;1.70;;
3967;SDS011;9221;42.646;23.380;2022-11-23T15:34:22;16.27;;;1.90;;
3967;SDS011;9221;42.646;23.380;2022-11-23T15:36:49;3.03;;;0.90;;
3967;SDS011;9221;42.646;23.380;2022-11-23T15:39:20;4.07;;;0.90;;
3967;SDS011;9221;42.646;23.380;2022-11-23T15:41:48;7.00;;;1.60;;
3967;SDS011;9221;42.646;23.380;2022-11-23T15:44:23;4.20;;;0.97;;
3967;SDS011;9221;42.646;23.380;2022-11-23T15:47:02;5.17;;;1.17;;
3967;SDS011;9221;42.646;23.380;2022-11-23T15:49:39;1.87;;;0.90;;
3967;SDS011;9221;42.646;23.380;2022-11-23T15:52:05;8.40;;;1.90;;
3967;SDS011;9221;42.646;23.380;2022-11-23T15:54:33;6.60;;;1.37;;
3967;SDS011;9221;42.646;23.380;2022-11-23T15:57:01;4.10;;;1.43;;
3967;SDS011;9221;42.646;23.380;2022-11-23T15:59:34;9.57;;;2.10;;
3967;SDS011;9221;42.646;23.380;2022-11-23T16:02:12;17.50;;;1.87;;
3967;SDS011;9221;42.646;23.380;2022-11-23T16:04:40;7.90;;;2.63;;
3967;SDS011;9221;42.646;23.380;2022-11-23T16:12:22;9.47;;;3.90;;
3967;SDS011;9221;42.646;23.380;2022-11-23T16:14:56;10.97;;;3.70;;
3967;SDS011;9221;42.646;23.380;2022-11-23T16:19:53;14.40;;;3.97;;
3967;SDS011;9221;42.646;23.380;2022-11-23T16:22:30;14.10;;;3.40;;
3967;SDS011;9221;42.646;23.380;2022-11-23T16:25:50;10.43;;;3.70;;
3967;SDS011;9221;42.646;23.380;2022-11-23T16:28:05;13.00;;;3.00;;
3967;SDS011;9221;42.646;23.380;2022-11-23T16:30:41;7.77;;;2.63;;
3967;SDS011;9221;42.646;23.380;2022-11-23T16:33:12;8.27;;;3.53;;
3967;SDS011;9221;42.646;23.380;2022-11-23T16:35:43;12.10;;;3.30;;
3967;SDS011;9221;42.646;23.380;2022-11-23T16:38:09;12.30;;;3.60;;
3967;SDS011;9221;42.646;23.380;2022-11-23T16:40:36;8.97;;;3.20;;
3967;SDS011;9221;42.646;23.380;2022-11-23T16:43:02;16.03;;;4.20;;
3967;SDS011;9221;42.646;23.380;2022-11-23T16:45:28;10.47;;;4.97;;
3967;SDS011;9221;42.646;23.380;2022-11-23T16:47:56;15.93;;;6.07;;
3967;SDS011;9221;42.646;23.380;2022-11-23T16:50:26;18.57;;;7.07;;
3967;SDS011;9221;42.646;23.380;2022-11-23T16:52:55;29.67;;;8.23;;
3967;SDS011;9221;42.646;23.380;2022-11-23T16:55:21;20.87;;;6.80;;
3967;SDS011;9221;42.646;23.380;2022-11-23T16:57:46;17.90;;;6.20;;
3967;SDS011;9221;42.646;23.380;2022-11-23T17:00:16;29.10;;;6.53;;
3967;SDS011;9221;42.646;23.380;2022-11-23T17:02:44;22.80;;;5.80;;
3967;SDS011;9221;42.646;23.380;2022-11-23T17:05:16;16.80;;;5.00;;
3967;SDS011;9221;42.646;23.380;2022-11-23T17:07:43;16.40;;;5.83;;
3967;SDS011;9221;42.646;23.380;2022-11-23T17:10:10;11.30;;;4.53;;
3967;SDS011;9221;42.646;23.380;2022-11-23T17:12:37;11.57;;;4.20;;
3967;SDS011;9221;42.646;23.380;2022-11-23T17:15:04;29.50;;;6.90;;
3967;SDS011;9221;42.646;23.380;2022-11-23T17:17:30;28.90;;;8.10;;
3967;SDS011;9221;42.646;23.380;2022-11-23T17:19:56;17.67;;;6.60;;
3967;SDS011;9221;42.646;23.380;2022-11-23T17:22:22;16.47;;;5.47;;
3967;SDS011;9221;42.646;23.380;2022-11-23T17:24:47;18.00;;;6.03;;
3967;SDS011;9221;42.646;23.380;2022-11-23T17:27:15;11.57;;;4.83;;
3967;SDS011;9221;42.646;23.380;2022-11-23T17:29:42;18.17;;;4.40;;
3967;SDS011;9221;42.646;23.380;2022-11-23T17:32:09;18.07;;;4.17;;